createdAt,value
2022-10-12T00:37:58.442Z,25.02
2022-10-12T00:40:48.193Z,29.08
2022-10-12T00:43:42.019Z,25.38
2022-10-12T00:46:34.904Z,27.60
2022-10-12T00:49:27.366Z,22.27
2022-10-12T00:52:17.558Z,26.70
2022-10-12T00:55:10.615Z,35.38
2022-10-12T00:58:00.321Z,30.92
2022-10-12T01:00:49.667Z,28.15
2022-10-12T01:03:39.231Z,28.20
2022-10-12T01:06:28.299Z,28.70
2022-10-12T01:09:17.320Z,26.80
2022-10-12T01:12:09.433Z,22.90
2022-10-12T01:14:58.607Z,25.48
2022-10-12T01:17:59.343Z,23.75
2022-10-12T01:21:07.202Z,25.02
2022-10-12T01:24:31.441Z,27.08
2022-10-12T01:27:47.356Z,23.73
2022-10-12T01:30:41.732Z,22.20
2022-10-12T01:33:38.083Z,25.10
2022-10-12T01:36:34.356Z,25.63
2022-10-12T01:39:29.001Z,22.60
2022-10-12T01:42:25.023Z,26.83
2022-10-12T01:45:15.479Z,26.02
2022-10-12T01:48:07.645Z,34.10
2022-10-12T01:51:01.063Z,29.10
2022-10-12T01:53:57.775Z,28.55
2022-10-12T01:56:56.111Z,30.42
2022-10-12T01:59:51.642Z,41.45
2022-10-12T02:02:51.295Z,28.90
2022-10-12T02:05:49.299Z,30.65
2022-10-12T02:08:43.808Z,26.15
2022-10-12T02:11:35.386Z,28.35
2022-10-12T02:14:29.806Z,29.25
2022-10-12T02:17:21.744Z,32.90
2022-10-12T02:20:15.683Z,37.22
2022-10-12T02:23:07.003Z,29.70
2022-10-12T02:25:58.116Z,41.17
2022-10-12T02:28:47.461Z,33.78
2022-10-12T02:31:41.609Z,29.27
2022-10-12T02:34:32.275Z,33.58
2022-10-12T02:37:31.176Z,27.75
2022-10-12T02:40:28.545Z,28.77
2022-10-12T02:43:19.970Z,34.22
2022-10-12T02:46:10.844Z,27.33
2022-10-12T02:49:00.638Z,32.30
2022-10-12T02:51:50.853Z,31.00
2022-10-12T02:54:40.320Z,30.73
2022-10-12T02:57:30.828Z,29.55
2022-10-12T03:00:21.020Z,27.33
2022-10-12T03:03:10.497Z,31.75
2022-10-12T03:05:59.699Z,25.30
2022-10-12T03:08:48.634Z,32.30
2022-10-12T03:11:38.004Z,32.58
2022-10-12T03:14:28.761Z,29.95
2022-10-12T03:17:17.995Z,32.35
2022-10-12T03:20:07.851Z,28.17
2022-10-12T03:22:57.080Z,31.90
2022-10-12T03:25:46.645Z,26.95
2022-10-12T03:28:35.851Z,27.17
2022-10-12T03:31:26.563Z,28.27
2022-10-12T03:34:15.980Z,26.75
2022-10-12T03:37:05.049Z,26.08
2022-10-12T03:39:54.201Z,24.67
2022-10-12T03:42:43.084Z,24.33
2022-10-12T03:45:32.105Z,27.42
2022-10-12T03:48:22.561Z,26.90
2022-10-12T03:51:12.401Z,24.05
2022-10-12T03:54:01.647Z,22.70
2022-10-12T03:56:51.185Z,24.00
2022-10-12T03:59:40.791Z,25.42
2022-10-12T04:02:30.168Z,27.13
2022-10-12T04:05:20.765Z,24.45
2022-10-12T04:08:10.593Z,22.27
2022-10-12T04:11:00.102Z,24.17
2022-10-12T04:13:49.347Z,30.25
2022-10-12T04:16:38.639Z,26.10
2022-10-12T04:19:27.858Z,26.48
2022-10-12T04:22:18.378Z,25.00
2022-10-12T04:25:08.118Z,23.48
2022-10-12T04:27:58.171Z,21.80
2022-10-12T04:30:47.821Z,24.50
2022-10-12T04:33:36.949Z,28.38
2022-10-12T04:36:26.193Z,25.58
2022-10-12T04:39:16.559Z,28.00
2022-10-12T04:42:07.222Z,26.20
2022-10-12T04:44:56.745Z,29.77
2022-10-12T04:47:46.158Z,25.50
2022-10-12T04:50:35.283Z,23.80
2022-10-12T04:53:24.487Z,26.38
2022-10-12T04:56:15.442Z,24.38
2022-10-12T04:59:04.436Z,23.05
2022-10-12T05:01:54.448Z,31.08
2022-10-12T05:04:43.708Z,25.88
2022-10-12T05:07:32.937Z,24.80
2022-10-12T05:10:21.826Z,26.05
2022-10-12T05:13:12.673Z,24.77
2022-10-12T05:16:02.163Z,26.67
2022-10-12T05:18:51.279Z,28.20
2022-10-12T05:21:40.770Z,30.35
2022-10-12T05:24:29.708Z,27.83
2022-10-12T05:27:18.944Z,23.77
2022-10-12T05:30:10.357Z,30.25
2022-10-12T05:32:59.747Z,30.38
2022-10-12T05:35:54.676Z,28.67
2022-10-12T05:38:45.500Z,30.35
2022-10-12T05:41:35.026Z,26.25
2022-10-12T05:44:24.184Z,32.20
2022-10-12T05:47:14.658Z,31.77
2022-10-12T05:50:04.170Z,30.75
2022-10-12T05:52:53.603Z,35.00
2022-10-12T05:55:42.886Z,31.35
2022-10-12T05:58:32.523Z,34.58
2022-10-12T06:01:21.929Z,33.72
2022-10-12T06:04:13.333Z,35.13
2022-10-12T06:07:02.693Z,35.85
2022-10-12T06:09:51.840Z,36.17
2022-10-12T06:12:41.279Z,39.80
2022-10-12T06:15:30.428Z,33.83
2022-10-12T06:18:19.779Z,37.85
2022-10-12T06:24:19.934Z,32.65
2022-10-12T06:27:09.782Z,35.13
2022-10-12T06:29:58.896Z,30.50
2022-10-12T06:32:48.238Z,32.40
2022-10-12T06:35:37.791Z,38.80
2022-10-12T06:38:28.999Z,35.95
2022-10-12T06:41:18.847Z,39.13
2022-10-12T06:44:08.648Z,31.85
2022-10-12T06:46:57.530Z,35.15
2022-10-12T06:49:46.831Z,30.27
2022-10-12T06:52:36.566Z,39.70
2022-10-12T06:55:27.139Z,33.75
2022-10-12T06:58:16.290Z,30.50
2022-10-12T07:01:05.729Z,30.98
2022-10-12T07:04:00.404Z,37.88
2022-10-12T07:06:50.363Z,33.80
2022-10-12T07:09:39.484Z,36.28
2022-10-12T07:12:30.047Z,31.33
2022-10-12T07:15:19.489Z,35.75
2022-10-12T07:18:08.694Z,34.75
2022-10-12T07:20:59.850Z,39.25
2022-10-12T07:23:49.393Z,35.92
2022-10-12T07:26:38.228Z,33.72
2022-10-12T07:29:29.014Z,29.25
2022-10-12T07:32:17.822Z,32.97
2022-10-12T07:35:07.233Z,35.25
2022-10-12T07:37:55.920Z,34.47
2022-10-12T07:40:44.949Z,36.30
2022-10-12T07:43:34.087Z,34.35
2022-10-12T07:46:25.515Z,32.75
2022-10-12T07:49:15.508Z,36.63
2022-10-12T07:52:04.500Z,34.17
2022-10-12T07:54:53.951Z,45.60
2022-10-12T07:57:44.387Z,42.03
2022-10-12T08:00:33.793Z,43.80
2022-10-12T08:03:24.794Z,37.88
2022-10-12T08:06:15.330Z,34.08
2022-10-12T08:09:04.743Z,40.80
2022-10-12T08:11:54.149Z,39.17
2022-10-12T08:14:43.393Z,39.47
2022-10-12T08:17:32.114Z,32.38
2022-10-12T08:20:22.622Z,36.60
2022-10-12T08:23:11.687Z,37.83
2022-10-12T08:26:00.412Z,33.88
2022-10-12T08:28:49.960Z,37.33
2022-10-12T08:31:38.667Z,31.98
2022-10-12T08:34:27.548Z,33.25
2022-10-12T08:37:18.059Z,31.27
2022-10-12T08:40:08.503Z,34.08
2022-10-12T08:43:05.747Z,36.08
2022-10-12T08:45:57.345Z,33.63
2022-10-12T08:48:51.990Z,35.85
2022-10-12T08:51:48.750Z,34.40
2022-10-12T08:54:44.160Z,36.00
2022-10-12T08:57:34.937Z,35.45
2022-10-12T09:00:24.932Z,35.95
2022-10-12T09:03:25.111Z,32.50
2022-10-12T09:06:18.667Z,34.38
2022-10-12T09:09:20.585Z,29.20
2022-10-12T09:12:25.392Z,27.88
2022-10-12T09:15:17.962Z,26.73
2022-10-12T09:18:16.571Z,24.23
2022-10-12T09:21:07.665Z,22.58
2022-10-12T09:23:57.943Z,27.25
2022-10-12T09:26:49.855Z,20.98
2022-10-12T09:29:40.646Z,26.20
2022-10-12T09:32:52.317Z,22.55
2022-10-12T09:35:41.941Z,17.70
2022-10-12T09:38:31.098Z,22.33
2022-10-12T09:41:22.730Z,23.90
2022-10-12T09:44:15.826Z,25.15
2022-10-12T09:47:07.838Z,25.15
2022-10-12T09:49:59.578Z,22.13
2022-10-12T09:52:50.670Z,24.08
2022-10-12T09:55:40.159Z,20.48
2022-10-12T09:58:30.329Z,22.33
2022-10-12T10:01:21.983Z,24.52
2022-10-12T10:04:14.615Z,13.98
2022-10-12T10:07:14.769Z,19.65
2022-10-12T10:10:10.436Z,20.77
2022-10-12T10:13:03.143Z,19.58
2022-10-12T10:15:53.816Z,23.60
2022-10-12T10:18:45.505Z,18.33
2022-10-12T10:21:38.464Z,16.23
2022-10-12T10:24:31.127Z,18.70
2022-10-12T10:27:37.847Z,19.10
2022-10-12T10:30:35.003Z,15.85
2022-10-12T10:33:27.811Z,16.08
2022-10-12T10:36:21.594Z,14.95
2022-10-12T10:39:20.890Z,15.32
2022-10-12T10:42:18.387Z,20.77
2022-10-12T10:45:10.106Z,15.90
2022-10-12T10:48:02.811Z,16.88
2022-10-12T10:51:00.368Z,19.58
2022-10-12T10:53:51.911Z,18.73
2022-10-12T10:56:42.907Z,16.13
2022-10-12T10:59:47.110Z,16.85
2022-10-12T11:02:43.260Z,15.98
2022-10-12T11:05:34.282Z,16.05
2022-10-12T11:08:25.146Z,16.80
2022-10-12T11:11:16.084Z,19.17
2022-10-12T11:14:10.334Z,14.25
2022-10-12T11:17:01.302Z,20.45
2022-10-12T11:19:52.912Z,15.77
2022-10-12T11:22:48.824Z,17.25
2022-10-12T11:25:45.634Z,19.15
2022-10-12T11:28:39.387Z,20.35
2022-10-12T11:31:32.538Z,14.00
2022-10-12T11:34:23.891Z,15.70
2022-10-12T11:37:20.280Z,15.38
2022-10-12T11:40:14.343Z,18.15
2022-10-12T11:43:08.252Z,15.68
2022-10-12T11:45:59.857Z,15.35
2022-10-12T11:48:56.281Z,15.48
2022-10-12T11:51:48.320Z,19.83
2022-10-12T11:54:44.611Z,18.10
2022-10-12T11:57:38.595Z,15.38
2022-10-12T12:00:37.763Z,14.52
2022-10-12T12:03:31.689Z,16.70
2022-10-12T12:06:54.840Z,19.58
2022-10-12T12:09:50.132Z,20.33
2022-10-12T12:13:00.181Z,26.23
2022-10-12T12:16:04.280Z,21.85
2022-10-12T12:19:30.624Z,14.75
2022-10-12T12:22:30.055Z,16.67
2022-10-12T12:25:36.912Z,16.10
2022-10-12T12:28:27.081Z,18.67
2022-10-12T12:31:18.665Z,14.45
2022-10-12T12:34:14.198Z,15.25
2022-10-12T12:37:14.463Z,16.52
2022-10-12T12:40:06.109Z,13.98
2022-10-12T12:43:15.637Z,11.07
2022-10-12T12:46:05.970Z,15.45
2022-10-12T12:49:07.851Z,11.95
2022-10-12T12:52:00.001Z,13.13
2022-10-12T12:55:30.470Z,9.90
2022-10-12T12:58:38.640Z,13.40
2022-10-12T13:01:49.338Z,10.18
2022-10-12T13:04:53.647Z,15.18
2022-10-12T13:08:08.774Z,9.98
2022-10-12T13:11:17.632Z,10.30
2022-10-12T13:14:22.523Z,19.27
2022-10-12T13:17:34.376Z,15.38
2022-10-12T13:20:26.478Z,11.98
2022-10-12T13:23:19.351Z,14.55
2022-10-12T13:26:10.719Z,12.38
2022-10-12T13:29:00.914Z,18.75
2022-10-12T13:31:54.115Z,14.27
2022-10-12T13:34:46.690Z,12.75
2022-10-12T13:37:36.470Z,12.70
2022-10-12T13:40:34.144Z,11.65
2022-10-12T13:43:30.709Z,9.18
2022-10-12T13:46:38.510Z,12.07
2022-10-12T13:49:31.739Z,13.75
2022-10-12T13:52:28.386Z,8.98
2022-10-12T13:55:26.495Z,15.52
2022-10-12T13:58:24.659Z,12.90
2022-10-12T14:01:14.424Z,14.38
2022-10-12T14:04:09.698Z,12.98
2022-10-12T14:07:03.382Z,13.98
2022-10-12T14:09:56.869Z,13.57
2022-10-12T14:12:46.944Z,12.93
2022-10-12T14:15:38.518Z,12.65
2022-10-12T14:18:39.680Z,20.10
2022-10-12T14:21:33.256Z,12.82
2022-10-12T14:24:26.659Z,12.35
2022-10-12T14:27:24.364Z,17.45
2022-10-12T14:30:20.621Z,22.33
2022-10-12T14:33:23.302Z,17.38
2022-10-12T14:36:17.029Z,13.77
2022-10-12T14:39:14.255Z,12.52
2022-10-12T14:42:06.041Z,13.40
2022-10-12T14:44:55.646Z,15.50
2022-10-12T14:47:44.765Z,17.73
2022-10-12T14:50:34.425Z,13.30
2022-10-12T14:53:29.251Z,10.48
2022-10-12T14:56:18.491Z,16.23
2022-10-12T14:59:09.264Z,12.07
2022-10-12T15:01:58.332Z,10.27
2022-10-12T15:04:47.432Z,13.93
2022-10-12T15:07:37.023Z,12.70
2022-10-12T15:10:26.946Z,14.27
2022-10-12T15:13:16.642Z,12.32
2022-10-12T15:16:12.757Z,14.40
2022-10-12T15:19:02.179Z,14.18
2022-10-12T15:21:51.340Z,11.65
2022-10-12T15:24:40.527Z,20.63
2022-10-12T15:27:30.068Z,12.45
2022-10-12T15:30:19.656Z,12.93
2022-10-12T15:33:12.248Z,16.02
2022-10-12T15:36:01.809Z,16.23
2022-10-12T15:38:50.756Z,20.13
2022-10-12T15:41:40.182Z,15.35
2022-10-12T15:44:29.551Z,12.43
2022-10-12T15:47:18.687Z,9.98
2022-10-12T15:50:10.095Z,14.95
2022-10-12T15:52:59.367Z,19.35
2022-10-12T15:55:48.963Z,14.85
2022-10-12T15:58:38.071Z,14.77
2022-10-12T16:01:27.495Z,16.40
2022-10-12T16:04:17.534Z,13.73
2022-10-12T16:07:08.714Z,10.82
2022-10-12T16:10:00.545Z,15.65
2022-10-12T16:12:50.653Z,13.30
2022-10-12T16:15:40.238Z,13.93
2022-10-12T16:18:29.576Z,11.48
2022-10-12T16:21:18.874Z,13.40
2022-10-12T16:24:09.867Z,15.45
2022-10-12T16:26:59.664Z,13.38
2022-10-12T16:29:48.751Z,10.85
2022-10-12T16:32:38.127Z,16.63
2022-10-12T16:35:27.445Z,11.75
2022-10-12T16:38:16.467Z,11.80
2022-10-12T16:41:12.282Z,18.73
2022-10-12T16:44:02.130Z,12.63
2022-10-12T16:46:51.313Z,16.60
2022-10-12T16:49:40.696Z,17.30
2022-10-12T16:52:29.839Z,13.13
2022-10-12T16:55:19.306Z,11.48
2022-10-12T16:58:10.417Z,11.70
2022-10-12T17:00:59.299Z,12.98
2022-10-12T17:03:48.540Z,16.73
2022-10-12T17:06:37.672Z,16.50
2022-10-12T17:09:27.762Z,12.52
2022-10-12T17:12:19.037Z,14.25
2022-10-12T17:15:11.978Z,12.82
2022-10-12T17:18:00.538Z,11.13
2022-10-12T17:20:52.814Z,13.80
2022-10-12T17:23:42.252Z,13.18
2022-10-12T17:26:32.218Z,16.67
2022-10-12T17:29:21.946Z,13.98
2022-10-12T17:32:15.936Z,12.00
2022-10-12T17:35:05.644Z,15.43
2022-10-12T17:37:56.715Z,14.00
2022-10-12T17:40:45.915Z,15.40
2022-10-12T17:43:34.995Z,14.90
2022-10-12T17:46:24.244Z,14.02
2022-10-12T17:49:17.961Z,12.70
2022-10-12T17:52:08.696Z,13.35
2022-10-12T17:54:58.959Z,11.27
2022-10-12T17:57:48.085Z,12.52
2022-10-12T18:00:37.209Z,17.52
2022-10-12T18:03:28.298Z,15.90
2022-10-12T18:06:22.432Z,16.52
2022-10-12T18:09:12.207Z,17.50
2022-10-12T18:12:02.355Z,15.45
2022-10-12T18:14:53.511Z,15.82
2022-10-12T18:17:42.547Z,11.55
2022-10-12T18:20:31.564Z,15.98
2022-10-12T18:23:22.283Z,15.95
2022-10-12T18:26:14.443Z,17.20
2022-10-12T18:29:05.633Z,15.73
2022-10-12T18:31:55.335Z,15.57
2022-10-12T18:34:44.670Z,22.25
2022-10-12T18:37:34.417Z,14.73
2022-10-12T18:40:29.641Z,16.77
2022-10-12T18:43:18.927Z,14.85
2022-10-12T18:46:08.902Z,16.77
2022-10-12T18:48:58.821Z,24.10
2022-10-12T18:51:50.037Z,24.23
2022-10-12T18:54:39.026Z,19.63
2022-10-12T18:57:32.116Z,26.10
2022-10-12T19:00:22.784Z,20.80
2022-10-12T19:03:14.520Z,19.85
2022-10-12T19:06:09.386Z,18.83
2022-10-12T19:09:05.294Z,27.38
2022-10-12T19:11:54.654Z,22.30
2022-10-12T19:14:45.273Z,24.02
2022-10-12T19:17:34.511Z,22.70
2022-10-12T19:20:23.786Z,20.67
2022-10-12T19:23:12.959Z,20.73
2022-10-12T19:26:06.001Z,24.42
2022-10-12T19:28:57.428Z,24.55
2022-10-12T19:31:52.824Z,26.08
2022-10-12T19:34:42.796Z,21.58
2022-10-12T19:37:32.132Z,23.27
2022-10-12T19:40:22.014Z,17.60
2022-10-12T19:43:11.534Z,22.67
2022-10-12T19:46:04.215Z,26.60
2022-10-12T19:48:56.826Z,19.15
2022-10-12T19:51:46.425Z,20.83
2022-10-12T19:54:36.409Z,23.55
2022-10-12T19:57:26.225Z,20.83
2022-10-12T20:00:23.385Z,23.67
2022-10-12T20:03:12.676Z,17.70
2022-10-12T20:06:06.393Z,19.70
2022-10-12T20:08:56.982Z,21.17
2022-10-12T20:11:46.310Z,22.98
2022-10-12T20:14:35.328Z,22.08
2022-10-12T20:17:24.559Z,21.65
2022-10-12T20:20:14.392Z,22.02
2022-10-12T20:23:05.390Z,24.77
2022-10-12T20:25:55.361Z,24.88
2022-10-12T20:28:44.994Z,19.40
2022-10-12T20:31:34.214Z,19.85
2022-10-12T20:34:23.520Z,23.13
2022-10-12T20:37:14.710Z,22.90
2022-10-12T20:40:05.442Z,25.77
2022-10-12T20:42:54.938Z,20.98
2022-10-12T20:45:44.450Z,20.38
2022-10-12T20:48:34.146Z,19.00
2022-10-12T20:51:24.754Z,24.23
2022-10-12T20:54:18.520Z,19.63
2022-10-12T20:57:09.409Z,19.15
2022-10-12T20:59:58.650Z,24.95
2022-10-12T21:02:47.917Z,22.70
2022-10-12T21:05:37.223Z,25.02
2022-10-12T21:08:26.571Z,22.67
2022-10-12T21:11:15.873Z,20.25
2022-10-12T21:14:06.886Z,24.98
2022-10-12T21:16:56.115Z,19.75
2022-10-12T21:19:45.045Z,22.52
2022-10-12T21:22:34.417Z,20.20
2022-10-12T21:25:23.663Z,21.75
2022-10-12T21:28:14.232Z,18.67
2022-10-12T21:31:05.190Z,17.48
2022-10-12T21:33:54.863Z,24.80
2022-10-12T21:36:44.315Z,24.33
2022-10-12T21:39:34.091Z,17.13
2022-10-12T21:42:23.583Z,16.13
2022-10-12T21:45:12.986Z,18.55
2022-10-12T21:48:03.799Z,18.45
2022-10-12T21:50:53.338Z,26.65
2022-10-12T21:53:42.527Z,16.95
2022-10-12T21:56:32.314Z,23.98
2022-10-12T21:59:21.692Z,18.60
2022-10-12T22:02:10.836Z,19.15
2022-10-12T22:05:01.443Z,18.40
2022-10-12T22:07:50.960Z,18.65
2022-10-12T22:10:43.726Z,19.33
2022-10-12T22:13:33.978Z,18.42
2022-10-12T22:16:23.509Z,28.15
2022-10-12T22:19:19.412Z,21.50
2022-10-12T22:22:10.449Z,18.25
2022-10-12T22:24:59.686Z,17.60
2022-10-12T22:27:48.852Z,18.92
2022-10-12T22:30:41.021Z,20.02
2022-10-12T22:33:30.573Z,18.80
2022-10-12T22:40:04.101Z,19.45
2022-10-12T22:42:53.199Z,23.50
2022-10-12T22:45:42.508Z,18.13
2022-10-12T22:48:31.722Z,22.10
2022-10-12T22:51:22.549Z,20.90
2022-10-12T22:54:13.336Z,18.02
2022-10-12T22:57:03.895Z,17.23
2022-10-12T22:59:52.738Z,23.73
2022-10-12T23:02:42.098Z,21.40
2022-10-12T23:05:31.582Z,23.08
2022-10-12T23:08:20.860Z,19.70
2022-10-12T23:11:13.273Z,19.40
2022-10-12T23:14:04.073Z,25.17
2022-10-12T23:16:53.810Z,21.48
2022-10-12T23:19:43.851Z,16.50
2022-10-12T23:22:32.902Z,18.40
2022-10-12T23:25:22.596Z,19.75
2022-10-12T23:28:11.947Z,20.77
2022-10-12T23:31:04.837Z,17.10
2022-10-12T23:33:58.714Z,16.40
2022-10-12T23:36:47.592Z,17.77
2022-10-12T23:39:37.368Z,23.20
2022-10-12T23:42:28.591Z,18.40
2022-10-12T23:45:17.509Z,24.95
2022-10-12T23:48:08.221Z,19.15
2022-10-12T23:50:57.757Z,25.30
2022-10-12T23:53:47.280Z,18.65
2022-10-12T23:56:36.420Z,21.67
2022-10-12T23:59:25.972Z,27.95
